This is the latest recevied weather packets stored in our database for station/object KF4PPJ. If no packets are shown the sender has not sent any weather packets the latest 10 day(s).
| Time | Temp. | Humidity | Pressure | Rain* | Wind** | Luminosity | Snow |
|---|---|---|---|---|---|---|---|
| 1777579012 | 18.89° C | 58% | 1021.8 hPa | 0 mm | - | 504 W/m² | - |
| 1777577494 | 19.44° C | 58% | 1022 hPa | 0 mm | - | 323 W/m² | - |
| 1777577191 | 19.44° C | 60% | 1022.3 hPa | 0 mm | - | 530 W/m² | - |
| 1777576587 | 19.44° C | 59% | 1022.1 hPa | 0 mm | - | 559 W/m² | - |
| 1777575371 | 19.44° C | 60% | 1022.3 hPa | 0 mm | - | 457 W/m² | - |
| 1777575068 | 18.89° C | 61% | 1022.3 hPa | 0 mm | - | 403 W/m² | - |
| 1777574156 | 19.44° C | 59% | 1022.7 hPa | 0 mm | - | 506 W/m² | - |
| 1777573852 | 18.89° C | 59% | 1022.4 hPa | 0 mm | - | 537 W/m² | - |
| 1777573547 | 18.89° C | 59% | 1022.7 hPa | 0 mm | - | 647 W/m² | - |
| 1777573244 | 18.33° C | 59% | 1022.8 hPa | 0 mm | - | 629 W/m² | - |
| 1777572940 | 18.89° C | 58% | 1022.6 hPa | 0 mm | - | 633 W/m² | - |
| 1777571424 | 17.78° C | 63% | 1022.9 hPa | 0 mm | - | 651 W/m² | - |
| 1777571120 | 17.78° C | 62% | 1023.1 hPa | 0 mm | - | 552 W/m² | - |
| 1777569600 | 16.11° C | 68% | 1023.2 hPa | 0 mm | - | 475 W/m² | - |
| 1777568084 | 15° C | 70% | 1023.5 hPa | 0 mm | - | 360 W/m² | - |
| 1777567780 | 15° C | 72% | 1023.6 hPa | 0 mm | - | 402 W/m² | - |
| 1777567477 | 14.44° C | 73% | 1023.8 hPa | 0 mm | - | 318 W/m² | - |
| 1777565965 | 13.89° C | 76% | 1023.6 hPa | 0 mm | - | 308 W/m² | - |
| 1777565053 | 13.89° C | 76% | 1023.8 hPa | 0 mm | - | 162 W/m² | - |
| 1777564749 | 14.44° C | 75% | 1024 hPa | 0 mm | - | 153 W/m² | - |
| 1777563533 | 14.44° C | 73% | 1023.9 hPa | 0 mm | - | 82 W/m² | - |
| 1777563231 | 14.44° C | 75% | 1024.1 hPa | 0 mm | - | 82 W/m² | - |
| 1777562929 | 13.89° C | 78% | 1024 hPa | 0 mm | - | 78 W/m² | - |
| 1777562624 | 13.33° C | 85% | 1024.2 hPa | 0 mm | - | 77 W/m² | - |
| 1777562324 | 12.78° C | 90% | 1024 hPa | 0 mm | - | 76 W/m² | - |
* Rain latest hour (hover to see other rain measurements)
** Current wind speed in m/s (hover to see current wind gust speed)